createdAt,value
2023-02-01T06:32:25.237Z,71.36
2023-02-01T06:33:00.791Z,71.65
2023-02-01T06:33:39.782Z,71.02
2023-02-01T06:34:12.208Z,71.11
2023-02-01T06:34:44.739Z,71.23
2023-02-01T06:35:17.667Z,71.20
2023-02-01T06:35:59.207Z,71.12
2023-02-01T06:36:31.613Z,71.18
2023-02-01T06:37:04.030Z,70.89
2023-02-01T06:37:38.242Z,70.73
2023-02-01T06:38:11.704Z,70.78
2023-02-01T06:38:44.063Z,70.82
2023-02-01T06:39:17.414Z,71.00
2023-02-01T06:39:53.013Z,70.92
2023-02-01T06:40:25.642Z,70.79
2023-02-01T06:40:59.167Z,70.80
2023-02-01T06:41:31.511Z,70.92
2023-02-01T06:42:04.681Z,71.11
2023-02-01T06:42:37.019Z,70.86
2023-02-01T06:43:09.378Z,70.63
2023-02-01T06:43:41.807Z,70.82
2023-02-01T06:44:14.243Z,70.95
2023-02-01T06:44:52.015Z,71.76
2023-02-01T06:45:24.291Z,71.38
2023-02-01T06:46:05.298Z,71.65
2023-02-01T06:46:37.780Z,70.44
2023-02-01T06:47:10.171Z,70.29
2023-02-01T06:47:45.666Z,70.40
2023-02-01T06:48:18.549Z,70.55
2023-02-01T06:48:53.702Z,70.29
2023-02-01T06:49:26.143Z,70.49
2023-02-01T06:49:58.436Z,69.96
2023-02-01T06:50:30.712Z,70.90
2023-02-01T06:51:03.123Z,71.04
2023-02-01T06:51:39.075Z,70.43
2023-02-01T06:52:11.472Z,70.45
2023-02-01T06:52:43.944Z,69.98
2023-02-01T06:53:16.463Z,70.19
2023-02-01T06:53:48.911Z,70.52
2023-02-01T06:54:24.007Z,70.02
2023-02-01T06:54:56.925Z,69.88
2023-02-01T06:55:29.276Z,70.19
2023-02-01T06:56:06.402Z,70.16
2023-02-01T06:56:40.350Z,70.07
2023-02-01T06:57:12.801Z,70.95
2023-02-01T06:57:45.267Z,70.08
2023-02-01T06:58:17.644Z,69.73
2023-02-01T06:58:50.803Z,69.74
2023-02-01T06:59:26.208Z,69.83
2023-02-01T06:59:59.952Z,69.79
2023-02-01T07:00:32.535Z,69.99
2023-02-01T07:01:09.793Z,69.34
2023-02-01T07:01:42.194Z,69.05
2023-02-01T07:02:14.711Z,69.36
2023-02-01T07:02:47.003Z,69.63
2023-02-01T07:03:19.314Z,69.50
2023-02-01T07:03:52.419Z,69.82
2023-02-01T07:04:24.772Z,69.37
2023-02-01T07:04:57.177Z,69.69
2023-02-01T07:05:29.591Z,71.36
2023-02-01T07:06:02.073Z,70.33
2023-02-01T07:06:34.524Z,70.22
2023-02-01T07:07:06.855Z,68.78
2023-02-01T07:07:39.191Z,69.45
2023-02-01T07:08:11.562Z,69.18
2023-02-01T07:08:44.828Z,69.09
2023-02-01T07:09:19.318Z,68.01
2023-02-01T07:09:52.008Z,66.79
2023-02-01T07:10:24.643Z,66.76
2023-02-01T07:10:57.543Z,68.51
2023-02-01T07:11:30.047Z,66.20
2023-02-01T07:12:02.434Z,65.38
2023-02-01T07:12:34.831Z,65.06
2023-02-01T07:13:16.575Z,64.07
2023-02-01T07:13:49.217Z,62.73
2023-02-01T07:14:21.552Z,63.69
2023-02-01T07:14:53.897Z,62.92
2023-02-01T07:15:27.378Z,61.96
2023-02-01T07:16:05.329Z,61.93
2023-02-01T07:16:38.418Z,61.85
2023-02-01T07:17:10.798Z,61.33
2023-02-01T07:17:43.290Z,61.02
2023-02-01T07:18:18.203Z,61.23
2023-02-01T07:18:52.449Z,61.02
2023-02-01T07:19:37.040Z,59.80
2023-02-01T07:20:12.539Z,58.82
2023-02-01T07:20:51.376Z,58.60
2023-02-01T07:21:23.780Z,57.57
2023-02-01T07:21:56.090Z,57.50
2023-02-01T07:22:28.979Z,57.01
2023-02-01T07:23:05.964Z,57.66
2023-02-01T07:23:39.396Z,57.36
2023-02-01T07:24:13.300Z,57.59
2023-02-01T07:24:45.965Z,58.05
2023-02-01T07:25:18.326Z,56.30
2023-02-01T07:26:00.629Z,54.43
2023-02-01T07:26:33.471Z,55.01
2023-02-01T07:27:07.713Z,54.92
2023-02-01T07:27:43.640Z,54.15
2023-02-01T07:28:18.341Z,54.68
2023-02-01T07:28:53.144Z,57.03
2023-02-01T07:29:25.465Z,54.96
2023-02-01T07:30:03.253Z,54.64
2023-02-01T07:30:35.707Z,53.34
2023-02-01T07:31:12.363Z,53.42
2023-02-01T07:31:46.624Z,54.10
2023-02-01T07:32:19.186Z,54.83
2023-02-01T07:32:54.493Z,54.70
2023-02-01T07:33:29.010Z,52.35
2023-02-01T07:34:01.894Z,53.72
2023-02-01T07:34:34.967Z,53.93
2023-02-01T07:35:07.782Z,53.59
2023-02-01T07:35:40.135Z,53.10
2023-02-01T07:36:16.247Z,51.93
2023-02-01T07:36:48.650Z,52.64
2023-02-01T07:37:21.149Z,52.63
2023-02-01T07:37:53.559Z,51.07
2023-02-01T07:38:25.934Z,51.34
2023-02-01T07:38:58.817Z,51.16
2023-02-01T07:39:32.979Z,51.04
2023-02-01T07:40:06.331Z,50.91
2023-02-01T07:40:38.699Z,50.85
2023-02-01T07:41:11.647Z,51.29
2023-02-01T07:41:43.966Z,51.66
2023-02-01T07:42:16.263Z,52.09
2023-02-01T07:42:49.962Z,51.57
2023-02-01T07:43:22.325Z,50.31
2023-02-01T07:43:56.627Z,50.22
2023-02-01T07:44:29.037Z,50.44
2023-02-01T07:45:14.676Z,50.57
2023-02-01T07:45:53.764Z,50.47
2023-02-01T07:46:26.117Z,50.36
2023-02-01T07:46:58.539Z,50.46
2023-02-01T07:47:30.844Z,51.09
2023-02-01T07:48:03.668Z,51.81
2023-02-01T07:48:36.116Z,51.53
2023-02-01T07:49:08.625Z,51.56
2023-02-01T07:49:40.942Z,51.52
2023-02-01T07:50:13.430Z,51.44
2023-02-01T07:50:54.663Z,50.73
2023-02-01T07:51:28.127Z,50.71
2023-02-01T07:52:00.465Z,50.84
2023-02-01T07:52:32.888Z,50.61
2023-02-01T07:53:05.286Z,50.45
2023-02-01T07:53:37.761Z,50.39
2023-02-01T07:54:13.800Z,50.01
2023-02-01T07:54:49.106Z,50.04
2023-02-01T07:55:21.978Z,50.53
2023-02-01T07:55:54.458Z,50.79
2023-02-01T07:56:27.917Z,49.97
2023-02-01T07:57:00.424Z,49.88
2023-02-01T07:57:41.704Z,50.04
2023-02-01T07:58:14.034Z,50.11
2023-02-01T07:58:55.758Z,49.67
2023-02-01T07:59:28.066Z,49.67
2023-02-01T08:00:18.746Z,50.19
2023-02-01T08:01:10.304Z,49.47
2023-02-01T08:01:42.737Z,49.73
2023-02-01T08:02:15.210Z,49.72
2023-02-01T08:02:47.588Z,50.38
2023-02-01T08:03:20.131Z,49.65
2023-02-01T08:03:59.995Z,49.75
2023-02-01T08:04:32.379Z,49.65
2023-02-01T08:05:10.926Z,49.31
2023-02-01T08:05:43.512Z,49.02
2023-02-01T08:06:16.240Z,48.79
2023-02-01T08:06:48.496Z,49.11
2023-02-01T08:07:22.832Z,48.73
2023-02-01T08:07:55.157Z,48.40
2023-02-01T08:08:29.958Z,48.29
2023-02-01T08:09:06.361Z,48.31
2023-02-01T08:10:26.052Z,48.07
2023-02-01T08:11:02.245Z,48.59
2023-02-01T08:11:38.555Z,47.98
2023-02-01T08:12:11.256Z,48.01
2023-02-01T08:12:43.851Z,47.82
2023-02-01T08:13:16.670Z,48.12
2023-02-01T08:13:49.538Z,48.18
2023-02-01T08:14:21.922Z,48.18
2023-02-01T08:14:54.834Z,47.93
2023-02-01T08:15:28.397Z,47.82
2023-02-01T08:16:14.336Z,47.92
2023-02-01T08:16:47.653Z,47.14
2023-02-01T08:17:20.801Z,47.77
2023-02-01T08:17:53.425Z,47.78
2023-02-01T08:18:25.936Z,47.64
2023-02-01T08:18:58.537Z,47.67
2023-02-01T08:19:30.987Z,47.76
2023-02-01T08:20:03.472Z,47.64
2023-02-01T08:20:37.176Z,47.76
2023-02-01T08:21:26.779Z,47.64
2023-02-01T08:22:00.404Z,48.14
2023-02-01T08:22:34.082Z,47.81
2023-02-01T08:23:57.877Z,47.14
2023-02-01T08:24:30.786Z,47.36
2023-02-01T08:25:44.873Z,47.91
2023-02-01T08:26:27.219Z,48.29
2023-02-01T08:26:59.726Z,49.28
2023-02-01T08:27:34.532Z,49.13
2023-02-01T08:28:08.098Z,49.26
2023-02-01T08:28:42.421Z,48.79
2023-02-01T08:29:14.994Z,48.35
2023-02-01T08:29:49.640Z,48.31
2023-02-01T08:30:23.287Z,49.50
2023-02-01T08:30:55.788Z,49.83
2023-02-01T08:31:30.211Z,48.03
2023-02-01T08:32:02.617Z,48.25
2023-02-01T08:32:36.575Z,48.39
2023-02-01T08:33:09.870Z,48.52
2023-02-01T08:33:44.002Z,48.65
2023-02-01T08:34:16.372Z,48.83
2023-02-01T08:34:48.742Z,49.15
2023-02-01T08:35:23.659Z,49.08
2023-02-01T08:35:56.105Z,49.06
2023-02-01T08:36:30.675Z,48.37
2023-02-01T08:37:03.087Z,48.44
2023-02-01T08:37:35.429Z,48.82
2023-02-01T08:38:07.711Z,49.12
2023-02-01T08:38:41.282Z,48.81
2023-02-01T08:39:13.606Z,49.15
2023-02-01T08:39:47.734Z,49.07
2023-02-01T08:40:20.397Z,49.66
2023-02-01T08:40:56.365Z,49.36
2023-02-01T08:41:30.712Z,49.18
2023-02-01T08:42:21.791Z,49.28
2023-02-01T08:42:55.025Z,49.98
2023-02-01T08:43:29.829Z,49.27
2023-02-01T08:44:02.553Z,49.41
2023-02-01T08:44:38.006Z,49.44
2023-02-01T08:45:10.916Z,49.36
2023-02-01T08:45:43.352Z,49.23
2023-02-01T08:47:54.325Z,48.96
2023-02-01T08:48:26.631Z,48.04
2023-02-01T08:48:59.111Z,48.00
2023-02-01T08:49:31.527Z,48.27
2023-02-01T08:50:04.225Z,48.54
2023-02-01T08:50:36.544Z,48.50
2023-02-01T08:51:11.635Z,49.38
2023-02-01T08:51:43.998Z,48.25
2023-02-01T08:52:16.499Z,49.11
2023-02-01T08:52:48.925Z,48.82
2023-02-01T08:53:21.365Z,48.22
2023-02-01T08:53:53.734Z,49.85
2023-02-01T08:54:26.084Z,48.00
2023-02-01T08:54:58.487Z,47.04
2023-02-01T08:55:30.892Z,46.96
2023-02-01T08:56:03.797Z,47.22
2023-02-01T08:56:36.151Z,48.28
2023-02-01T08:57:14.653Z,47.20
2023-02-01T08:57:47.102Z,46.98
2023-02-01T08:58:20.535Z,48.14
2023-02-01T08:58:52.864Z,49.25
2023-02-01T08:59:28.070Z,48.71
2023-02-01T09:00:03.074Z,49.21
2023-02-01T09:00:35.432Z,49.80
2023-02-01T09:01:11.628Z,49.05
2023-02-01T09:01:43.940Z,48.62
2023-02-01T09:02:17.834Z,48.54
2023-02-01T09:02:50.215Z,48.54
2023-02-01T09:03:22.573Z,48.74
2023-02-01T09:03:55.247Z,49.29
2023-02-01T09:04:27.621Z,49.54
2023-02-01T09:05:02.835Z,49.41
2023-02-01T09:05:48.510Z,49.55
2023-02-01T09:06:21.636Z,49.36
2023-02-01T09:06:56.518Z,49.56
2023-02-01T09:07:28.786Z,49.69
2023-02-01T09:08:01.070Z,50.12
2023-02-01T09:08:34.394Z,50.14
2023-02-01T09:09:06.737Z,49.64
2023-02-01T09:09:39.617Z,49.38
2023-02-01T09:10:12.610Z,49.29
2023-02-01T09:10:45.033Z,49.46
2023-02-01T09:11:20.537Z,50.15
2023-02-01T09:11:52.882Z,50.48
2023-02-01T09:12:25.975Z,50.27
2023-02-01T09:13:01.846Z,50.61
2023-02-01T09:13:37.572Z,50.90
2023-02-01T09:14:09.923Z,50.31
2023-02-01T09:14:42.472Z,50.77
2023-02-01T09:15:15.077Z,50.66
2023-02-01T09:15:51.638Z,50.43
2023-02-01T09:16:24.026Z,50.69
2023-02-01T09:16:56.358Z,50.44
2023-02-01T09:17:30.828Z,49.61
2023-02-01T09:18:06.221Z,49.67
2023-02-01T09:18:46.093Z,50.23
2023-02-01T09:19:28.825Z,50.00
2023-02-01T09:20:02.599Z,49.91
2023-02-01T09:20:35.223Z,49.77
2023-02-01T09:21:10.557Z,49.40
2023-02-01T09:21:43.155Z,49.59
2023-02-01T09:22:17.074Z,49.29
2023-02-01T09:22:49.385Z,49.19
2023-02-01T09:23:21.751Z,49.44
2023-02-01T09:23:54.253Z,49.47
2023-02-01T09:24:26.724Z,49.44
2023-02-01T09:24:59.042Z,49.82
2023-02-01T09:25:31.418Z,50.12
2023-02-01T09:26:05.480Z,49.85
2023-02-01T09:26:38.496Z,49.62
2023-02-01T09:27:11.348Z,49.22
2023-02-01T09:27:43.704Z,49.33
2023-02-01T09:28:16.244Z,48.31
2023-02-01T09:28:55.919Z,47.53
2023-02-01T09:29:28.355Z,45.87
2023-02-01T09:30:01.257Z,45.74
2023-02-01T09:30:35.224Z,45.37
2023-02-01T09:31:12.178Z,44.51
2023-02-01T09:31:57.441Z,43.98
2023-02-01T09:32:43.582Z,42.37
2023-02-01T09:33:15.974Z,41.69
2023-02-01T09:33:49.649Z,41.30
2023-02-01T09:34:22.203Z,41.16
2023-02-01T09:34:55.666Z,39.66
2023-02-01T09:35:28.114Z,40.18
2023-02-01T09:36:05.942Z,39.78
2023-02-01T09:36:47.233Z,39.48
2023-02-01T09:37:20.396Z,39.08
2023-02-01T09:37:54.216Z,38.14
2023-02-01T09:38:28.368Z,38.39
2023-02-01T09:39:04.708Z,38.52
2023-02-01T09:39:36.996Z,38.37
2023-02-01T09:40:17.785Z,38.48
2023-02-01T09:40:50.029Z,38.55
2023-02-01T09:41:49.230Z,38.79
2023-02-01T09:42:46.866Z,36.94
2023-02-01T09:43:41.298Z,37.32
2023-02-01T09:44:44.068Z,37.38
2023-02-01T09:45:40.001Z,36.83
2023-02-01T09:46:29.108Z,36.10
2023-02-01T09:47:01.809Z,36.39
2023-02-01T09:47:38.131Z,36.35
2023-02-01T09:48:21.452Z,36.43
2023-02-01T09:48:56.609Z,36.14
2023-02-01T09:49:47.373Z,35.97
2023-02-01T09:50:38.420Z,35.42
2023-02-01T09:51:31.942Z,35.83
2023-02-01T09:52:18.318Z,36.83
2023-02-01T09:53:11.898Z,36.02
2023-02-01T09:53:54.325Z,36.34
2023-02-01T09:55:04.591Z,37.04
2023-02-01T09:56:08.551Z,36.04
2023-02-01T09:57:00.000Z,35.89
2023-02-01T09:57:51.607Z,36.82
2023-02-01T09:58:31.765Z,36.49
2023-02-01T09:59:33.039Z,38.77
2023-02-01T10:00:16.449Z,36.92
2023-02-01T10:01:21.083Z,36.47
2023-02-01T10:01:54.428Z,37.04
2023-02-01T10:02:29.709Z,38.52
2023-02-01T10:03:02.160Z,38.60
2023-02-01T10:03:36.686Z,38.16
2023-02-01T10:04:14.284Z,38.91
2023-02-01T10:04:48.921Z,39.36
2023-02-01T10:05:46.139Z,39.10
2023-02-01T10:06:37.290Z,39.49
2023-02-01T10:07:24.651Z,39.63
2023-02-01T10:07:57.180Z,40.50
2023-02-01T10:10:19.731Z,42.90
2023-02-01T10:11:14.345Z,43.79
2023-02-01T10:12:31.869Z,44.99
2023-02-01T10:13:30.362Z,46.36
2023-02-01T10:14:17.863Z,46.74
2023-02-01T10:15:14.374Z,47.73
2023-02-01T10:15:50.256Z,48.75
2023-02-01T10:16:25.702Z,48.34
2023-02-01T10:17:25.802Z,49.21
2023-02-01T10:18:24.543Z,50.05
2023-02-01T10:19:32.034Z,49.38
2023-02-01T10:20:07.169Z,50.19
2023-02-01T10:21:03.774Z,50.52
2023-02-01T10:22:00.527Z,51.37
2023-02-01T10:23:13.400Z,52.42
2023-02-01T10:24:18.098Z,51.46
2023-02-01T10:25:16.967Z,52.19
2023-02-01T10:26:23.313Z,52.28
2023-02-01T10:27:08.817Z,52.24
2023-02-01T10:27:42.615Z,51.74
2023-02-01T10:28:18.423Z,52.54
2023-02-01T10:28:54.553Z,52.08
2023-02-01T10:29:36.147Z,52.18
2023-02-01T10:30:14.676Z,52.12
2023-02-01T10:30:49.133Z,52.06
2023-02-01T10:31:25.988Z,53.08
2023-02-01T10:31:58.671Z,53.15
2023-02-01T10:32:35.665Z,52.89
2023-02-01T10:33:18.426Z,52.79
2023-02-01T10:33:56.723Z,52.94
2023-02-01T10:34:37.407Z,53.24
2023-02-01T10:35:18.744Z,52.86
2023-02-01T10:35:59.604Z,52.76
2023-02-01T10:37:02.621Z,53.22
2023-02-01T10:37:36.862Z,52.56
2023-02-01T10:40:24.226Z,53.42
2023-02-01T10:45:21.968Z,52.89
2023-02-01T10:45:54.472Z,53.34
2023-02-01T10:46:27.823Z,53.52
2023-02-01T10:47:00.201Z,53.65
2023-02-01T10:47:32.568Z,52.47
2023-02-01T10:48:05.567Z,52.74
2023-02-01T10:48:38.982Z,52.66
2023-02-01T10:49:30.902Z,52.62
2023-02-01T10:50:16.827Z,52.99
2023-02-01T10:50:59.821Z,53.19
2023-02-01T10:51:45.092Z,52.84
2023-02-01T10:52:25.852Z,52.39
2023-02-01T10:53:21.078Z,52.74
2023-02-01T10:54:17.316Z,52.23
2023-02-01T10:54:49.735Z,51.44
2023-02-01T10:55:32.798Z,50.74
2023-02-01T10:56:15.001Z,49.81
2023-02-01T10:56:48.069Z,50.47
2023-02-01T10:57:25.842Z,49.56
2023-02-01T10:58:00.817Z,50.54
2023-02-01T10:58:45.927Z,49.42
2023-02-01T10:59:26.187Z,49.18
2023-02-01T10:59:58.622Z,48.44
2023-02-01T11:01:04.999Z,48.34
2023-02-01T11:01:49.775Z,47.98
2023-02-01T11:02:33.206Z,47.44
2023-02-01T11:03:39.792Z,48.46
2023-02-01T11:04:18.809Z,48.03
2023-02-01T11:04:51.947Z,48.33
2023-02-01T11:05:26.110Z,47.75
2023-02-01T11:05:58.584Z,47.50
2023-02-01T11:06:43.512Z,47.56
2023-02-01T11:07:25.791Z,47.39
2023-02-01T11:08:00.517Z,47.86
2023-02-01T11:08:33.017Z,48.08
2023-02-01T11:09:28.619Z,48.28
2023-02-01T11:10:01.037Z,47.34
2023-02-01T11:10:42.735Z,46.69
2023-02-01T11:11:15.364Z,46.59
2023-02-01T11:11:47.693Z,46.70
2023-02-01T11:12:32.798Z,47.69
2023-02-01T11:13:06.787Z,47.70
2023-02-01T11:13:41.218Z,47.92
2023-02-01T11:14:19.358Z,47.40
2023-02-01T11:14:51.740Z,47.15
2023-02-01T11:15:27.895Z,46.91
2023-02-01T11:16:03.555Z,46.52
2023-02-01T11:16:39.315Z,47.23
2023-02-01T11:17:39.706Z,47.09
2023-02-01T11:18:21.792Z,47.45
2023-02-01T11:18:56.427Z,47.31
2023-02-01T11:19:29.712Z,47.55
2023-02-01T11:20:13.499Z,48.01
2023-02-01T11:20:52.999Z,48.08
2023-02-01T11:21:25.595Z,48.38
2023-02-01T11:22:03.583Z,49.40
2023-02-01T11:22:35.963Z,49.50
2023-02-01T11:23:24.181Z,48.58
2023-02-01T11:24:02.605Z,49.30
2023-02-01T11:24:37.187Z,49.02
2023-02-01T11:25:12.088Z,50.41
2023-02-01T11:26:08.948Z,50.50
2023-02-01T11:26:42.663Z,50.46
2023-02-01T11:27:27.673Z,49.85
2023-02-01T11:28:00.591Z,49.89
2023-02-01T11:28:35.735Z,50.11
2023-02-01T11:29:15.553Z,50.68
2023-02-01T11:29:52.785Z,51.67
2023-02-01T11:30:38.667Z,50.55
2023-02-01T11:31:14.858Z,50.86
2023-02-01T11:31:47.490Z,51.84
2023-02-01T11:32:23.192Z,51.72
2023-02-01T11:32:55.768Z,52.64
2023-02-01T11:33:35.020Z,52.70
2023-02-01T11:34:15.482Z,51.53
2023-02-01T11:34:53.088Z,51.56
2023-02-01T11:35:25.924Z,51.63
2023-02-01T11:35:59.807Z,51.91
2023-02-01T11:36:36.830Z,51.72
2023-02-01T11:37:30.400Z,51.76
2023-02-01T11:38:22.137Z,52.41
2023-02-01T11:39:16.277Z,52.00
2023-02-01T11:39:58.993Z,51.75
2023-02-01T11:40:40.698Z,51.65
2023-02-01T11:41:24.537Z,51.97
2023-02-01T11:41:59.817Z,52.19
2023-02-01T11:42:35.153Z,51.52
2023-02-01T11:43:26.051Z,52.49
2023-02-01T11:44:01.083Z,52.82
2023-02-01T11:44:39.457Z,53.23
2023-02-01T11:45:42.362Z,53.18
2023-02-01T11:48:21.555Z,52.93
2023-02-01T11:49:20.365Z,53.64
2023-02-01T11:50:00.495Z,51.64
2023-02-01T11:50:46.819Z,51.86
2023-02-01T11:51:37.627Z,51.98
2023-02-01T11:52:31.463Z,51.89
2023-02-01T11:53:40.785Z,51.65
2023-02-01T11:54:31.574Z,52.29
2023-02-01T11:55:43.993Z,52.27
2023-02-01T11:56:37.043Z,52.04
2023-02-01T11:57:10.519Z,52.77
2023-02-01T11:58:13.342Z,56.02
2023-02-01T11:58:58.515Z,53.36
2023-02-01T12:00:09.641Z,53.22
2023-02-01T12:01:09.732Z,53.54
2023-02-01T12:02:13.245Z,54.09
2023-02-01T12:02:48.114Z,54.37
2023-02-01T12:03:37.089Z,54.32
2023-02-01T12:04:52.698Z,55.19
2023-02-01T12:06:00.091Z,54.75
2023-02-01T12:06:43.160Z,54.74
2023-02-01T12:07:42.618Z,55.45
2023-02-01T12:08:32.186Z,56.11
2023-02-01T12:09:36.618Z,56.77
2023-02-01T12:10:25.846Z,57.16
2023-02-01T12:11:16.012Z,58.09
2023-02-01T12:12:04.448Z,57.18
2023-02-01T12:12:54.669Z,57.73
2023-02-01T12:13:45.044Z,58.93
2023-02-01T12:14:44.567Z,59.96
2023-02-01T12:15:48.303Z,59.70
2023-02-01T12:16:51.285Z,60.41
2023-02-01T12:17:44.485Z,61.88
2023-02-01T12:18:38.238Z,62.23
2023-02-01T12:19:31.900Z,62.07
2023-02-01T12:20:58.327Z,62.91
2023-02-01T12:21:46.836Z,63.29
2023-02-01T12:22:26.295Z,63.11
2023-02-01T12:23:07.872Z,63.70
2023-02-01T12:24:12.722Z,63.16
2023-02-01T12:25:16.230Z,63.95
2023-02-01T12:26:06.607Z,64.06
2023-02-01T12:27:18.533Z,63.96
2023-02-01T12:28:08.509Z,64.47
2023-02-01T12:29:12.177Z,64.74
2023-02-01T12:30:05.578Z,64.18
2023-02-01T12:30:59.730Z,64.31
2023-02-01T12:32:06.366Z,63.98
2023-02-01T12:32:52.641Z,64.07
2023-02-01T12:33:53.926Z,64.24
2023-02-01T12:34:56.860Z,64.25
2023-02-01T12:36:06.900Z,64.44
2023-02-01T12:36:51.326Z,65.09
2023-02-01T12:38:04.478Z,64.47
2023-02-01T12:38:58.422Z,64.94
2023-02-01T12:39:48.897Z,64.17
2023-02-01T12:40:35.770Z,64.71
2023-02-01T12:41:11.453Z,64.40
2023-02-01T12:41:55.452Z,64.59
2023-02-01T12:42:38.625Z,65.73
2023-02-01T12:43:22.817Z,66.75
2023-02-01T12:44:01.007Z,67.15
2023-02-01T12:44:51.452Z,67.17
2023-02-01T12:45:35.248Z,68.35
2023-02-01T12:46:34.163Z,68.75
2023-02-01T12:47:18.052Z,67.70
2023-02-01T12:48:00.876Z,68.02
2023-02-01T12:48:39.729Z,68.85
2023-02-01T12:49:17.873Z,69.33
2023-02-01T12:49:58.626Z,70.44
2023-02-01T12:50:54.768Z,68.76
2023-02-01T12:51:38.608Z,69.19
2023-02-01T12:52:21.112Z,69.14
2023-02-01T12:52:58.055Z,69.21
2023-02-01T12:53:46.944Z,69.98
2023-02-01T12:54:46.769Z,72.26
2023-02-01T12:55:36.540Z,70.97
2023-02-01T12:56:27.987Z,71.31
2023-02-01T12:57:10.091Z,72.20
2023-02-01T12:57:48.667Z,73.32
2023-02-01T12:58:45.350Z,73.46
2023-02-01T12:59:43.429Z,73.38
2023-02-01T13:00:33.858Z,74.94
2023-02-01T13:01:24.783Z,75.29
2023-02-01T13:02:22.987Z,74.52
2023-02-01T13:03:05.256Z,74.97
2023-02-01T13:04:32.896Z,76.69
2023-02-01T13:05:16.798Z,75.34
2023-02-01T13:06:00.178Z,75.63
2023-02-01T13:06:39.687Z,75.20
2023-02-01T13:07:29.077Z,78.71
2023-02-01T13:08:08.871Z,77.30
2023-02-01T13:08:53.705Z,79.30
2023-02-01T13:09:34.108Z,79.23
2023-02-01T13:10:33.895Z,79.22
2023-02-01T13:11:15.088Z,78.86
2023-02-01T13:11:50.873Z,80.02
2023-02-01T13:12:39.491Z,80.22
2023-02-01T13:13:39.965Z,79.91
2023-02-01T13:14:42.079Z,79.23
2023-02-01T13:15:42.498Z,80.01
2023-02-01T13:16:45.993Z,80.94
2023-02-01T13:17:26.067Z,80.06
2023-02-01T13:18:17.314Z,80.16
2023-02-01T13:18:55.274Z,83.68
2023-02-01T13:19:50.343Z,84.43
2023-02-01T13:20:56.460Z,84.14
2023-02-01T13:21:35.221Z,83.95
2023-02-01T13:22:13.755Z,84.26
2023-02-01T13:22:55.786Z,84.37
2023-02-01T13:23:35.808Z,84.49
2023-02-01T13:24:39.461Z,83.72
2023-02-01T13:25:14.069Z,85.45
2023-02-01T13:25:51.700Z,86.33
2023-02-01T13:26:24.031Z,85.40
2023-02-01T13:26:56.891Z,85.71
2023-02-01T13:27:31.464Z,84.31
2023-02-01T13:28:33.755Z,83.93
2023-02-01T13:29:12.071Z,86.61
2023-02-01T13:30:09.274Z,87.83
2023-02-01T13:31:03.416Z,87.59
2023-02-01T13:32:07.774Z,85.71
2023-02-01T13:33:52.256Z,86.62
2023-02-01T13:34:28.025Z,86.13
2023-02-01T13:35:30.608Z,86.39
2023-02-01T13:36:37.184Z,86.99
2023-02-01T13:37:46.616Z,83.53
2023-02-01T13:38:56.047Z,84.94
2023-02-01T13:39:55.083Z,82.67
2023-02-01T13:41:02.432Z,82.90
2023-02-01T13:41:51.354Z,83.60
2023-02-01T13:42:34.376Z,82.59
2023-02-01T13:43:22.265Z,83.63
2023-02-01T13:44:13.952Z,81.96
2023-02-01T13:44:58.717Z,81.75
2023-02-01T13:45:35.815Z,82.63
2023-02-01T13:46:10.631Z,83.12
2023-02-01T13:46:46.526Z,82.64
2023-02-01T13:47:34.560Z,85.56
2023-02-01T13:48:15.569Z,83.08
2023-02-01T13:48:58.528Z,83.87
2023-02-01T13:49:39.992Z,85.02
2023-02-01T13:50:29.784Z,84.29
2023-02-01T13:51:02.943Z,84.43
2023-02-01T13:51:42.029Z,83.59
2023-02-01T13:52:30.027Z,83.03
2023-02-01T13:53:27.776Z,83.56
2023-02-01T13:54:00.545Z,83.31
2023-02-01T13:54:37.431Z,84.40
2023-02-01T13:55:27.513Z,84.99
2023-02-01T13:56:09.978Z,83.77
2023-02-01T13:56:44.782Z,83.16
2023-02-01T13:57:41.664Z,83.44
2023-02-01T13:58:16.465Z,86.60
2023-02-01T13:58:49.752Z,83.74
2023-02-01T13:59:40.443Z,84.17
2023-02-01T14:00:41.887Z,83.51
2023-02-01T14:01:23.021Z,84.91
2023-02-01T14:01:55.350Z,87.95
2023-02-01T14:02:39.416Z,84.90
2023-02-01T14:03:20.241Z,82.73
2023-02-01T14:03:55.382Z,82.74
2023-02-01T14:04:49.985Z,82.47
2023-02-01T14:05:25.483Z,83.17
2023-02-01T14:06:01.292Z,83.66
2023-02-01T14:06:36.523Z,82.49
2023-02-01T14:07:20.310Z,82.93
2023-02-01T14:08:07.711Z,82.82
2023-02-01T14:09:09.253Z,82.70
2023-02-01T14:09:41.671Z,81.68
2023-02-01T14:10:55.154Z,82.33
2023-02-01T14:11:36.829Z,83.60
2023-02-01T14:12:48.500Z,82.76
2023-02-01T14:13:36.966Z,82.75
2023-02-01T14:14:18.121Z,82.62
2023-02-01T14:14:50.512Z,82.12
2023-02-01T14:15:23.979Z,81.80
2023-02-01T14:16:05.461Z,82.99
2023-02-01T14:16:39.992Z,82.08
2023-02-01T14:17:12.239Z,81.65
2023-02-01T14:17:47.193Z,80.83
2023-02-01T14:18:54.564Z,81.09
2023-02-01T14:23:16.827Z,83.29
2023-02-01T14:23:58.950Z,83.52
2023-02-01T14:24:39.752Z,83.89
2023-02-01T14:25:24.956Z,84.39
2023-02-01T14:26:06.078Z,84.88
2023-02-01T14:26:38.430Z,84.17
2023-02-01T14:27:13.455Z,85.19
2023-02-01T14:27:45.960Z,84.46
2023-02-01T14:28:30.673Z,84.26
2023-02-01T14:29:12.739Z,84.17
2023-02-01T14:30:00.615Z,84.72
2023-02-01T14:30:33.188Z,83.95
2023-02-01T14:31:25.988Z,83.62
2023-02-01T14:32:22.529Z,83.02
2023-02-01T14:32:54.953Z,84.14
2023-02-01T14:33:29.379Z,84.40
2023-02-01T14:34:15.711Z,83.71
2023-02-01T14:34:48.012Z,83.71
2023-02-01T14:35:26.355Z,84.73
2023-02-01T14:36:07.643Z,85.02
2023-02-01T14:36:45.183Z,84.39
2023-02-01T14:37:17.475Z,85.15
2023-02-01T14:37:59.673Z,84.31
2023-02-01T14:38:33.771Z,85.51
2023-02-01T14:39:06.150Z,85.25
2023-02-01T14:39:58.154Z,86.24
2023-02-01T14:40:31.966Z,85.54
2023-02-01T14:41:34.379Z,84.88
2023-02-01T14:42:33.341Z,84.38
2023-02-01T14:43:05.733Z,86.45
2023-02-01T14:43:52.457Z,85.93
2023-02-01T14:44:30.945Z,85.27
2023-02-01T14:45:21.300Z,85.57
2023-02-01T14:45:53.966Z,84.35
2023-02-01T14:47:06.320Z,83.62
2023-02-01T14:47:44.851Z,84.09
2023-02-01T14:48:19.302Z,83.82
2023-02-01T14:48:58.834Z,82.28
2023-02-01T14:49:43.823Z,84.17
2023-02-01T14:50:33.319Z,84.44
2023-02-01T14:51:08.485Z,85.51
2023-02-01T14:51:41.433Z,84.30
2023-02-01T14:52:18.367Z,82.83
2023-02-01T14:53:14.921Z,84.08
2023-02-01T14:53:47.908Z,82.04
2023-02-01T14:54:20.628Z,82.17
2023-02-01T14:54:57.123Z,81.85
2023-02-01T14:56:09.526Z,83.96
2023-02-01T14:56:42.604Z,83.34
2023-02-01T14:57:21.640Z,84.43
2023-02-01T14:57:58.465Z,84.98
2023-02-01T14:58:53.675Z,84.57
2023-02-01T14:59:34.230Z,83.52
2023-02-01T15:00:20.874Z,82.56
2023-02-01T15:00:59.544Z,81.27
2023-02-01T15:01:34.850Z,81.16
2023-02-01T15:02:22.706Z,81.04
2023-02-01T15:03:01.829Z,82.52
2023-02-01T15:03:38.005Z,82.01
2023-02-01T15:04:22.965Z,81.59
2023-02-01T15:04:57.841Z,81.35
2023-02-01T15:05:35.012Z,82.16
2023-02-01T15:06:24.671Z,82.15
2023-02-01T15:07:08.131Z,82.72
2023-02-01T15:07:41.738Z,83.26
2023-02-01T15:08:27.511Z,83.20
2023-02-01T15:09:10.653Z,83.44
2023-02-01T15:09:48.909Z,83.60
2023-02-01T15:10:23.887Z,83.25
2023-02-01T15:10:59.724Z,83.97
2023-02-01T15:11:32.212Z,83.18
2023-02-01T15:12:16.263Z,83.50
2023-02-01T15:12:50.315Z,84.80
2023-02-01T15:13:26.174Z,84.55
2023-02-01T15:14:00.848Z,84.43
2023-02-01T15:14:36.130Z,84.88
2023-02-01T15:15:18.882Z,84.85
2023-02-01T15:16:11.802Z,86.13
2023-02-01T15:16:50.821Z,86.10
2023-02-01T15:17:34.705Z,86.31
2023-02-01T15:18:18.781Z,86.14
2023-02-01T15:18:51.921Z,86.65
2023-02-01T15:19:26.688Z,86.36
2023-02-01T15:20:12.599Z,86.49
2023-02-01T15:21:28.322Z,86.94
2023-02-01T15:21:53.507Z,85.81
2023-02-01T15:22:27.296Z,85.91
2023-02-01T15:23:02.895Z,86.76
2023-02-01T15:23:35.233Z,87.60
2023-02-01T15:24:24.553Z,86.23
2023-02-01T15:24:59.791Z,86.35
2023-02-01T15:25:36.926Z,85.98
2023-02-01T15:26:09.312Z,86.39
2023-02-01T15:26:41.928Z,86.11
2023-02-01T15:27:14.289Z,86.65
2023-02-01T15:27:46.609Z,86.08
2023-02-01T15:28:19.472Z,86.21
2023-02-01T15:28:51.756Z,86.76
2023-02-01T15:29:28.576Z,86.21
2023-02-01T15:30:09.984Z,87.22
2023-02-01T15:30:57.833Z,88.14
2023-02-01T15:31:38.571Z,86.65
2023-02-01T15:32:33.257Z,85.26
2023-02-01T15:33:14.999Z,85.96
2023-02-01T15:34:00.759Z,86.63